createdAt,value
2022-11-26T00:00:09.193Z,6.52
2022-11-26T00:01:09.109Z,6.54
2022-11-26T00:02:09.060Z,6.62
2022-11-26T00:03:09.111Z,6.70
2022-11-26T00:04:08.862Z,6.66
2022-11-26T00:05:08.780Z,6.70
2022-11-26T00:06:08.695Z,6.73
2022-11-26T00:07:08.658Z,6.68
2022-11-26T00:08:08.530Z,6.68
2022-11-26T00:09:08.447Z,6.70
2022-11-26T00:10:08.362Z,6.72
2022-11-26T00:11:08.280Z,6.87
2022-11-26T00:12:08.196Z,6.80
2022-11-26T00:13:08.164Z,6.84
2022-11-26T00:14:08.031Z,6.75
2022-11-26T00:15:07.946Z,6.83
2022-11-26T00:16:07.891Z,6.87
2022-11-26T00:17:07.781Z,6.93
2022-11-26T00:18:07.697Z,6.88
2022-11-26T00:19:07.621Z,6.94
2022-11-26T00:20:07.534Z,6.93
2022-11-26T00:21:07.447Z,6.90
2022-11-26T00:22:07.364Z,6.90
2022-11-26T00:23:07.282Z,6.90
2022-11-26T00:24:07.196Z,6.91
2022-11-26T00:25:07.121Z,6.96
2022-11-26T00:26:07.033Z,6.93
2022-11-26T00:27:06.950Z,6.90
2022-11-26T00:28:06.864Z,6.91
2022-11-26T00:29:06.791Z,6.93
2022-11-26T00:30:06.698Z,6.94
2022-11-26T00:31:06.619Z,6.94
2022-11-26T00:32:06.621Z,6.90
2022-11-26T00:33:06.453Z,6.88
2022-11-26T00:34:06.371Z,6.96
2022-11-26T00:35:06.292Z,6.90
2022-11-26T00:36:06.209Z,6.94
2022-11-26T00:37:06.116Z,6.91
2022-11-26T00:38:06.035Z,6.87
2022-11-26T00:39:05.961Z,6.91
2022-11-26T00:40:05.873Z,6.83
2022-11-26T00:41:05.790Z,6.78
2022-11-26T00:42:05.703Z,6.84
2022-11-26T00:43:05.630Z,6.73
2022-11-26T00:44:05.540Z,6.72
2022-11-26T00:45:05.458Z,6.68
2022-11-26T00:46:05.390Z,6.42
2022-11-26T00:47:05.298Z,6.39
2022-11-26T00:48:05.207Z,6.34
2022-11-26T00:49:05.122Z,6.34
2022-11-26T00:50:05.050Z,6.33
2022-11-26T00:51:04.958Z,6.37
2022-11-26T00:52:04.875Z,6.27
2022-11-26T00:53:04.792Z,6.30
2022-11-26T00:54:04.713Z,6.21
2022-11-26T00:55:04.639Z,6.32
2022-11-26T00:56:04.546Z,6.21
2022-11-26T00:57:04.460Z,6.21
2022-11-26T00:58:04.376Z,6.21
2022-11-26T00:59:04.300Z,6.26
2022-11-26T01:00:04.210Z,6.21
2022-11-26T01:01:04.187Z,6.27
2022-11-26T01:02:04.092Z,6.27
2022-11-26T01:03:03.982Z,6.27
2022-11-26T01:04:03.879Z,6.32
2022-11-26T01:05:03.800Z,6.37
2022-11-26T01:06:03.710Z,6.36
2022-11-26T01:07:03.636Z,6.41
2022-11-26T01:08:03.550Z,6.37
2022-11-26T01:09:03.462Z,6.42
2022-11-26T01:10:03.383Z,6.37
2022-11-26T01:11:03.295Z,6.36
2022-11-26T01:12:03.216Z,6.24
2022-11-26T01:13:03.133Z,6.24
2022-11-26T01:14:03.049Z,6.33
2022-11-26T01:15:02.965Z,6.34
2022-11-26T01:16:02.932Z,6.30
2022-11-26T01:17:02.882Z,6.26
2022-11-26T01:18:02.715Z,6.39
2022-11-26T01:19:02.635Z,6.37
2022-11-26T01:20:02.552Z,6.42
2022-11-26T01:21:02.471Z,6.42
2022-11-26T01:22:02.383Z,6.42
2022-11-26T01:23:02.300Z,6.52
2022-11-26T01:24:02.217Z,6.65
2022-11-26T01:25:02.134Z,6.63
2022-11-26T01:26:06.243Z,6.65
2022-11-26T01:27:01.976Z,6.66
2022-11-26T01:28:01.884Z,6.70
2022-11-26T01:29:01.805Z,6.72
2022-11-26T01:30:01.714Z,6.70
2022-11-26T01:31:01.638Z,6.73
2022-11-26T01:32:01.662Z,6.81
2022-11-26T01:33:01.472Z,6.78
2022-11-26T01:34:01.386Z,6.87
2022-11-26T01:35:01.302Z,6.75
2022-11-26T01:36:01.221Z,6.80
2022-11-26T01:37:01.135Z,6.91
2022-11-26T01:38:01.056Z,6.91
2022-11-26T01:39:00.968Z,6.93
2022-11-26T01:40:00.888Z,6.98
2022-11-26T01:41:00.804Z,6.88
2022-11-26T01:42:00.721Z,6.91
2022-11-26T01:43:00.642Z,6.91
2022-11-26T01:44:00.552Z,6.98
2022-11-26T01:45:00.476Z,6.96
2022-11-26T01:46:00.552Z,6.94
2022-11-26T01:47:00.302Z,6.91
2022-11-26T01:48:00.222Z,6.96
2022-11-26T01:49:00.136Z,6.94
2022-11-26T01:50:00.056Z,6.90
2022-11-26T01:50:59.977Z,7.06
2022-11-26T01:51:59.897Z,6.98
2022-11-26T01:52:59.812Z,6.96
2022-11-26T01:53:59.727Z,6.98
2022-11-26T01:54:59.659Z,6.98
2022-11-26T01:55:59.566Z,6.99
2022-11-26T01:56:59.479Z,6.91
2022-11-26T01:57:59.400Z,6.96
2022-11-26T01:58:59.314Z,6.99
2022-11-26T01:59:59.236Z,6.98
2022-11-26T02:00:59.195Z,7.02
2022-11-26T02:01:59.124Z,6.94
2022-11-26T02:02:58.985Z,7.01
2022-11-26T02:03:58.903Z,6.96
2022-11-26T02:04:58.819Z,7.05
2022-11-26T02:05:58.732Z,7.08
2022-11-26T02:06:58.651Z,7.09
2022-11-26T02:07:58.613Z,7.06
2022-11-26T02:08:58.484Z,7.12
2022-11-26T02:09:58.402Z,7.03
2022-11-26T02:10:58.318Z,7.17
2022-11-26T02:11:58.236Z,7.17
2022-11-26T02:12:58.155Z,7.16
2022-11-26T02:13:58.070Z,7.17
2022-11-26T02:14:57.991Z,7.09
2022-11-26T02:15:57.901Z,7.17
2022-11-26T02:16:57.861Z,7.06
2022-11-26T02:17:57.743Z,7.16
2022-11-26T02:18:57.654Z,7.20
2022-11-26T02:19:57.572Z,7.05
2022-11-26T02:20:57.491Z,7.06
2022-11-26T02:21:57.405Z,7.09
2022-11-26T02:22:57.329Z,7.11
2022-11-26T02:23:57.242Z,7.11
2022-11-26T02:24:57.160Z,7.08
2022-11-26T02:25:57.074Z,7.08
2022-11-26T02:26:56.997Z,7.06
2022-11-26T02:27:56.909Z,7.03
2022-11-26T02:28:56.823Z,7.08
2022-11-26T02:29:56.747Z,7.11
2022-11-26T02:30:56.661Z,7.17
2022-11-26T02:31:56.594Z,7.08
2022-11-26T02:32:56.498Z,7.11
2022-11-26T02:33:56.412Z,7.21
2022-11-26T02:34:56.332Z,7.17
2022-11-26T02:35:56.247Z,7.19
2022-11-26T02:36:56.164Z,7.20
2022-11-26T02:37:56.079Z,7.19
2022-11-26T02:38:55.998Z,7.12
2022-11-26T02:39:55.913Z,7.13
2022-11-26T02:40:55.858Z,7.16
2022-11-26T02:41:55.745Z,7.03
2022-11-26T02:42:55.669Z,7.13
2022-11-26T02:43:55.581Z,7.06
2022-11-26T02:44:55.499Z,7.08
2022-11-26T02:45:55.442Z,7.19
2022-11-26T02:46:55.333Z,7.12
2022-11-26T02:47:55.249Z,7.17
2022-11-26T02:48:55.178Z,7.17
2022-11-26T02:49:55.082Z,7.17
2022-11-26T02:50:55.005Z,7.13
2022-11-26T02:51:54.920Z,7.17
2022-11-26T02:52:54.837Z,7.21
2022-11-26T02:53:54.754Z,7.27
2022-11-26T02:54:54.677Z,7.24
2022-11-26T02:55:54.593Z,7.30
2022-11-26T02:56:54.512Z,7.34
2022-11-26T02:57:54.419Z,7.19
2022-11-26T02:58:54.343Z,7.30
2022-11-26T02:59:54.262Z,7.23
2022-11-26T03:00:54.252Z,7.30
2022-11-26T03:01:54.089Z,7.27
2022-11-26T03:02:54.009Z,7.21
2022-11-26T03:03:54.053Z,7.24
2022-11-26T03:04:53.842Z,7.27
2022-11-26T03:05:53.776Z,7.21
2022-11-26T03:06:53.684Z,7.21
2022-11-26T03:07:53.635Z,7.29
2022-11-26T03:08:53.508Z,7.34
2022-11-26T03:09:53.435Z,7.19
2022-11-26T03:10:53.348Z,7.27
2022-11-26T03:11:53.308Z,7.20
2022-11-26T03:12:53.180Z,7.20
2022-11-26T03:13:53.099Z,7.16
2022-11-26T03:14:53.010Z,7.20
2022-11-26T03:15:52.932Z,7.20
2022-11-26T03:16:52.912Z,7.20
2022-11-26T03:17:52.766Z,7.16
2022-11-26T03:18:52.688Z,7.19
2022-11-26T03:19:52.603Z,7.17
2022-11-26T03:20:52.800Z,7.23
2022-11-26T03:21:52.431Z,7.27
2022-11-26T03:22:52.360Z,7.17
2022-11-26T03:23:52.268Z,7.19
2022-11-26T03:24:52.183Z,7.23
2022-11-26T03:25:52.101Z,7.19
2022-11-26T03:26:52.020Z,7.20
2022-11-26T03:27:51.935Z,7.26
2022-11-26T03:28:51.853Z,7.19
2022-11-26T03:29:51.769Z,7.26
2022-11-26T03:30:51.687Z,7.21
2022-11-26T03:31:51.637Z,7.29
2022-11-26T03:32:51.521Z,7.23
2022-11-26T03:33:51.438Z,7.17
2022-11-26T03:34:51.358Z,7.17
2022-11-26T03:35:51.277Z,7.23
2022-11-26T03:36:51.191Z,7.19
2022-11-26T03:37:51.107Z,7.26
2022-11-26T03:38:51.024Z,7.24
2022-11-26T03:39:50.949Z,7.29
2022-11-26T03:40:50.863Z,7.29
2022-11-26T03:41:50.777Z,7.29
2022-11-26T03:42:50.695Z,7.20
2022-11-26T03:43:50.620Z,7.19
2022-11-26T03:44:50.528Z,7.23
2022-11-26T03:45:50.489Z,7.26
2022-11-26T03:46:50.361Z,7.13
2022-11-26T03:47:50.280Z,7.12
2022-11-26T03:48:50.200Z,7.13
2022-11-26T03:49:50.112Z,7.21
2022-11-26T03:50:50.054Z,7.21
2022-11-26T03:51:49.947Z,7.19
2022-11-26T03:52:49.864Z,7.17
2022-11-26T03:53:49.789Z,7.23
2022-11-26T03:54:49.700Z,7.21
2022-11-26T03:55:49.616Z,7.16
2022-11-26T03:56:49.535Z,7.13
2022-11-26T03:57:49.458Z,7.17
2022-11-26T03:58:49.369Z,7.17
2022-11-26T03:59:49.294Z,7.13
2022-11-26T04:00:49.202Z,7.13
2022-11-26T04:01:49.148Z,7.08
2022-11-26T04:02:49.095Z,7.19
2022-11-26T04:03:48.957Z,7.08
2022-11-26T04:04:48.874Z,7.09
2022-11-26T04:05:48.793Z,7.11
2022-11-26T04:06:48.707Z,7.03
2022-11-26T04:07:48.666Z,7.11
2022-11-26T04:08:48.542Z,7.05
2022-11-26T04:09:48.456Z,7.13
2022-11-26T04:10:48.381Z,7.12
2022-11-26T04:11:48.297Z,7.01
2022-11-26T04:12:48.209Z,6.94
2022-11-26T04:13:48.129Z,7.01
2022-11-26T04:14:48.045Z,6.99
2022-11-26T04:15:47.965Z,7.01
2022-11-26T04:16:47.910Z,7.03
2022-11-26T04:17:47.795Z,6.93
2022-11-26T04:18:47.715Z,6.98
2022-11-26T04:19:47.630Z,7.02
2022-11-26T04:20:51.565Z,6.98
2022-11-26T04:21:47.465Z,7.02
2022-11-26T04:22:47.384Z,6.94
2022-11-26T04:23:47.296Z,6.99
2022-11-26T04:24:47.212Z,7.03
2022-11-26T04:25:47.140Z,6.91
2022-11-26T04:26:47.052Z,6.94
2022-11-26T04:27:46.973Z,6.96
2022-11-26T04:28:46.884Z,6.98
2022-11-26T04:29:46.810Z,6.99
2022-11-26T04:30:46.717Z,6.94
2022-11-26T04:31:46.691Z,6.96
2022-11-26T04:32:46.549Z,6.93
2022-11-26T04:33:46.472Z,7.05
2022-11-26T04:34:46.389Z,6.98
2022-11-26T04:35:46.301Z,6.94
2022-11-26T04:36:46.218Z,6.96
2022-11-26T04:37:46.136Z,6.94
2022-11-26T04:38:46.054Z,6.96
2022-11-26T04:39:45.975Z,6.98
2022-11-26T04:40:45.885Z,6.96
2022-11-26T04:41:45.806Z,6.96
2022-11-26T04:42:45.728Z,7.01
2022-11-26T04:43:45.641Z,7.02
2022-11-26T04:44:45.557Z,6.96
2022-11-26T04:45:45.487Z,6.98
2022-11-26T04:46:45.388Z,6.98
2022-11-26T04:47:45.306Z,6.96
2022-11-26T04:48:45.226Z,7.01
2022-11-26T04:49:45.148Z,7.01
2022-11-26T04:50:45.059Z,7.03
2022-11-26T04:51:44.978Z,6.98
2022-11-26T04:52:44.896Z,6.96
2022-11-26T04:53:44.814Z,6.98
2022-11-26T04:54:44.726Z,7.02
2022-11-26T04:55:44.648Z,6.98
2022-11-26T04:56:44.563Z,7.05
2022-11-26T04:57:44.481Z,6.94
2022-11-26T04:58:44.397Z,6.93
2022-11-26T04:59:44.316Z,7.01
2022-11-26T05:00:46.001Z,6.96
2022-11-26T05:01:44.188Z,7.02
2022-11-26T05:02:44.164Z,6.91
2022-11-26T05:03:43.993Z,7.05
2022-11-26T05:04:43.902Z,7.02
2022-11-26T05:05:43.824Z,7.09
2022-11-26T05:06:43.734Z,6.99
2022-11-26T05:07:43.723Z,6.96
2022-11-26T05:08:43.567Z,7.01
2022-11-26T05:09:43.485Z,7.03
2022-11-26T05:10:43.406Z,7.05
2022-11-26T05:11:43.324Z,6.98
2022-11-26T05:12:43.239Z,6.94
2022-11-26T05:13:43.156Z,6.96
2022-11-26T05:14:43.070Z,6.96
2022-11-26T05:15:42.995Z,6.91
2022-11-26T05:16:42.930Z,7.02
2022-11-26T05:17:42.833Z,6.99
2022-11-26T05:18:42.745Z,6.98
2022-11-26T05:19:42.660Z,6.98
2022-11-26T05:20:42.574Z,6.98
2022-11-26T05:21:42.493Z,6.99
2022-11-26T05:22:42.410Z,6.93
2022-11-26T05:23:42.329Z,6.99
2022-11-26T05:24:42.241Z,6.96
2022-11-26T05:25:42.165Z,7.02
2022-11-26T05:26:42.081Z,6.86
2022-11-26T05:27:41.998Z,7.03
2022-11-26T05:28:41.909Z,6.90
2022-11-26T05:29:41.831Z,6.87
2022-11-26T05:30:41.749Z,6.94
2022-11-26T05:31:41.745Z,6.84
2022-11-26T05:32:41.582Z,6.91
2022-11-26T05:33:41.497Z,6.91
2022-11-26T05:34:41.700Z,6.91
2022-11-26T05:35:41.330Z,6.90
2022-11-26T05:36:41.246Z,6.90
2022-11-26T05:37:41.165Z,6.87
2022-11-26T05:38:41.092Z,6.83
2022-11-26T05:39:40.999Z,6.84
2022-11-26T05:40:40.919Z,6.81
2022-11-26T05:41:40.833Z,6.86
2022-11-26T05:42:40.760Z,6.76
2022-11-26T05:43:40.671Z,6.69
2022-11-26T05:44:40.919Z,6.65
2022-11-26T05:45:40.562Z,6.73
2022-11-26T05:46:40.417Z,6.66
2022-11-26T05:47:40.335Z,6.69
2022-11-26T05:48:40.253Z,6.70
2022-11-26T05:49:40.171Z,6.68
2022-11-26T05:50:40.088Z,6.63
2022-11-26T05:51:40.004Z,6.65
2022-11-26T05:52:39.925Z,6.57
2022-11-26T05:53:39.839Z,6.42
2022-11-26T05:54:40.078Z,6.33
2022-11-26T05:55:39.674Z,6.22
2022-11-26T05:56:39.588Z,6.13
2022-11-26T05:57:39.545Z,6.07
2022-11-26T05:58:39.424Z,5.89
2022-11-26T05:59:39.341Z,5.83
2022-11-26T06:00:39.259Z,5.83
2022-11-26T06:01:39.181Z,5.77
2022-11-26T06:02:39.247Z,5.67
2022-11-26T06:03:39.044Z,5.60
2022-11-26T06:04:39.154Z,5.71
2022-11-26T06:05:38.846Z,5.68
2022-11-26T06:06:38.762Z,5.56
2022-11-26T06:07:43.311Z,5.67
2022-11-26T06:08:38.592Z,5.49
2022-11-26T06:09:38.715Z,5.65
2022-11-26T06:10:38.427Z,5.57
2022-11-26T06:11:38.342Z,5.50
2022-11-26T06:12:38.262Z,5.62
2022-11-26T06:13:38.180Z,5.57
2022-11-26T06:14:42.802Z,5.65
2022-11-26T06:15:38.017Z,5.67
2022-11-26T06:16:37.986Z,5.67
2022-11-26T06:17:37.849Z,5.60
2022-11-26T06:18:37.761Z,5.68
2022-11-26T06:19:37.678Z,5.59
2022-11-26T06:20:37.597Z,5.57
2022-11-26T06:21:37.511Z,5.54
2022-11-26T06:22:37.429Z,5.54
2022-11-26T06:23:37.348Z,5.57
2022-11-26T06:24:37.645Z,5.54
2022-11-26T06:25:37.183Z,5.49
2022-11-26T06:26:37.095Z,5.38
2022-11-26T06:27:37.017Z,5.45
2022-11-26T06:28:36.927Z,5.45
2022-11-26T06:29:36.847Z,5.44
2022-11-26T06:30:36.761Z,5.45
2022-11-26T06:31:36.698Z,5.44
2022-11-26T06:32:36.595Z,5.54
2022-11-26T06:33:36.509Z,5.45
2022-11-26T06:34:36.802Z,5.49
2022-11-26T06:35:36.347Z,5.54
2022-11-26T06:36:36.263Z,5.53
2022-11-26T06:37:36.178Z,5.53
2022-11-26T06:38:36.095Z,5.60
2022-11-26T06:39:36.015Z,5.62
2022-11-26T06:40:35.931Z,5.54
2022-11-26T06:41:35.843Z,5.65
2022-11-26T06:42:35.756Z,5.63
2022-11-26T06:43:35.682Z,5.57
2022-11-26T06:44:35.605Z,5.60
2022-11-26T06:45:35.598Z,5.67
2022-11-26T06:46:35.428Z,5.59
2022-11-26T06:47:35.343Z,5.57
2022-11-26T06:48:35.258Z,5.57
2022-11-26T06:49:35.182Z,5.59
2022-11-26T06:50:35.093Z,5.52
2022-11-26T06:51:35.007Z,5.53
2022-11-26T06:52:34.921Z,5.56
2022-11-26T06:53:34.839Z,5.56
2022-11-26T06:54:34.854Z,5.57
2022-11-26T06:55:34.678Z,5.59
2022-11-26T06:56:34.587Z,5.59
2022-11-26T06:57:34.505Z,5.41
2022-11-26T06:58:34.423Z,5.45
2022-11-26T06:59:34.339Z,5.56
2022-11-26T07:00:34.267Z,5.45
2022-11-26T07:01:34.197Z,5.44
2022-11-26T07:02:34.146Z,5.57
2022-11-26T07:03:34.008Z,5.42
2022-11-26T07:04:33.926Z,5.42
2022-11-26T07:05:33.839Z,5.52
2022-11-26T07:06:33.756Z,5.56
2022-11-26T07:07:33.729Z,5.49
2022-11-26T07:08:33.589Z,5.60
2022-11-26T07:09:33.502Z,5.62
2022-11-26T07:10:33.420Z,5.63
2022-11-26T07:11:33.338Z,5.57
2022-11-26T07:12:33.251Z,5.63
2022-11-26T07:13:33.175Z,5.72
2022-11-26T07:14:33.086Z,5.72
2022-11-26T07:15:33.015Z,5.78
2022-11-26T07:16:32.988Z,5.72
2022-11-26T07:17:32.838Z,5.83
2022-11-26T07:18:32.753Z,5.85
2022-11-26T07:19:32.676Z,5.75
2022-11-26T07:20:32.584Z,5.85
2022-11-26T07:21:32.507Z,5.83
2022-11-26T07:22:32.486Z,5.81
2022-11-26T07:23:32.361Z,5.85
2022-11-26T07:24:32.254Z,5.85
2022-11-26T07:25:32.166Z,5.81
2022-11-26T07:26:32.098Z,5.68
2022-11-26T07:27:31.997Z,5.59
2022-11-26T07:28:31.920Z,5.63
2022-11-26T07:29:31.832Z,5.56
2022-11-26T07:30:31.755Z,5.60
2022-11-26T07:31:31.680Z,5.54
2022-11-26T07:32:31.582Z,5.49
2022-11-26T07:33:31.498Z,5.44
2022-11-26T07:34:31.414Z,5.39
2022-11-26T07:35:31.330Z,5.47
2022-11-26T07:36:31.249Z,5.44
2022-11-26T07:37:31.171Z,5.47
2022-11-26T07:38:31.079Z,5.42
2022-11-26T07:39:31.002Z,5.41
2022-11-26T07:40:30.910Z,5.39
2022-11-26T07:41:30.828Z,5.45
2022-11-26T07:42:30.749Z,5.42
2022-11-26T07:43:30.663Z,5.31
2022-11-26T07:44:30.576Z,5.26
2022-11-26T07:45:30.493Z,5.29
2022-11-26T07:46:30.477Z,5.23
2022-11-26T07:47:30.334Z,5.26
2022-11-26T07:48:30.272Z,5.28
2022-11-26T07:49:30.160Z,5.32
2022-11-26T07:50:30.101Z,5.24
2022-11-26T07:51:29.994Z,5.23
2022-11-26T07:52:29.910Z,5.20
2022-11-26T07:53:29.824Z,5.17
2022-11-26T07:54:29.744Z,5.21
2022-11-26T07:55:29.657Z,5.18
2022-11-26T07:56:29.577Z,5.24
2022-11-26T07:57:29.490Z,5.31
2022-11-26T07:58:29.413Z,5.38
2022-11-26T07:59:29.328Z,5.53
2022-11-26T08:00:29.243Z,5.54
2022-11-26T08:01:29.190Z,5.70
2022-11-26T08:02:29.166Z,5.81
2022-11-26T08:03:28.989Z,5.97
2022-11-26T08:04:28.904Z,6.11
2022-11-26T08:05:28.825Z,6.17
2022-11-26T08:06:28.738Z,6.27
2022-11-26T08:07:29.601Z,6.47
2022-11-26T08:08:28.573Z,6.54
2022-11-26T08:09:28.487Z,6.62
2022-11-26T08:10:28.408Z,6.63
2022-11-26T08:11:28.327Z,6.68
2022-11-26T08:12:28.240Z,6.72
2022-11-26T08:13:28.153Z,6.83
2022-11-26T08:14:28.081Z,6.83
2022-11-26T08:15:27.988Z,6.90
2022-11-26T08:16:29.226Z,6.78
2022-11-26T08:17:27.821Z,6.86
2022-11-26T08:18:27.744Z,6.87
2022-11-26T08:19:27.656Z,6.87
2022-11-26T08:20:29.187Z,6.87
2022-11-26T08:21:27.491Z,6.99
2022-11-26T08:22:27.411Z,7.02
2022-11-26T08:23:27.324Z,7.06
2022-11-26T08:24:27.237Z,6.98
2022-11-26T08:25:27.158Z,6.96
2022-11-26T08:26:33.928Z,7.05
2022-11-26T08:27:26.992Z,7.11
2022-11-26T08:28:26.908Z,7.16
2022-11-26T08:29:26.825Z,7.31
2022-11-26T08:30:26.819Z,7.38
2022-11-26T08:31:26.692Z,7.31
2022-11-26T08:32:26.575Z,7.47
2022-11-26T08:33:26.490Z,7.47
2022-11-26T08:34:26.408Z,7.53
2022-11-26T08:35:44.423Z,7.57
2022-11-26T08:36:26.242Z,7.64
2022-11-26T08:37:26.157Z,7.55
2022-11-26T08:38:26.080Z,7.57
2022-11-26T08:39:25.993Z,7.57
2022-11-26T08:40:25.912Z,7.64
2022-11-26T08:41:25.825Z,7.68
2022-11-26T08:42:25.745Z,7.72
2022-11-26T08:43:45.051Z,7.57
2022-11-26T08:44:25.578Z,7.67
2022-11-26T08:45:25.494Z,7.59
2022-11-26T08:46:25.465Z,7.64
2022-11-26T08:47:25.329Z,7.64
2022-11-26T08:48:27.959Z,7.67
2022-11-26T08:49:25.161Z,7.67
2022-11-26T08:50:25.123Z,7.57
2022-11-26T08:51:25.002Z,7.70
2022-11-26T08:52:24.912Z,7.55
2022-11-26T08:53:24.829Z,7.63
2022-11-26T08:54:24.750Z,7.62
2022-11-26T08:55:27.096Z,7.60
2022-11-26T08:56:24.587Z,7.55
2022-11-26T08:57:24.598Z,7.56
2022-11-26T08:58:24.419Z,7.63
2022-11-26T08:59:24.350Z,7.60
2022-11-26T09:00:24.350Z,7.56
2022-11-26T09:01:24.189Z,7.63
2022-11-26T09:02:24.089Z,7.64
2022-11-26T09:03:24.048Z,7.63
2022-11-26T09:04:23.931Z,7.56
2022-11-26T09:05:23.840Z,7.68
2022-11-26T09:06:23.755Z,7.68
2022-11-26T09:07:23.762Z,7.63
2022-11-26T09:08:23.593Z,7.63
2022-11-26T09:09:23.506Z,7.79
2022-11-26T09:10:23.472Z,7.91
2022-11-26T09:11:23.344Z,7.85
2022-11-26T09:12:23.257Z,7.96
2022-11-26T09:13:23.177Z,7.96
2022-11-26T09:14:23.091Z,7.94
2022-11-26T09:15:23.075Z,7.99
2022-11-26T09:16:22.963Z,8.11
2022-11-26T09:17:22.847Z,8.12
2022-11-26T09:18:22.766Z,8.14
2022-11-26T09:19:22.684Z,8.12
2022-11-26T09:20:22.597Z,8.06
2022-11-26T09:21:22.521Z,8.29
2022-11-26T09:22:22.435Z,8.25
2022-11-26T09:23:22.351Z,8.25
2022-11-26T09:24:22.270Z,8.33
2022-11-26T09:25:22.189Z,8.47
2022-11-26T09:26:22.103Z,8.48
2022-11-26T09:27:22.023Z,8.52
2022-11-26T09:28:21.943Z,8.47
2022-11-26T09:29:21.858Z,8.50
2022-11-26T09:30:21.780Z,8.52
2022-11-26T09:31:21.713Z,8.52
2022-11-26T09:32:26.146Z,8.58
2022-11-26T09:33:21.524Z,8.51
2022-11-26T09:34:21.453Z,8.52
2022-11-26T09:35:21.363Z,8.54
2022-11-26T09:36:21.281Z,8.47
2022-11-26T09:37:21.206Z,8.42
2022-11-26T09:38:21.128Z,8.47
2022-11-26T09:39:21.039Z,8.42
2022-11-26T09:40:20.955Z,8.37
2022-11-26T09:41:20.869Z,8.36
2022-11-26T09:42:20.788Z,8.37
2022-11-26T09:43:20.705Z,8.37
2022-11-26T09:44:20.623Z,8.40
2022-11-26T09:45:20.538Z,8.43
2022-11-26T09:46:20.483Z,8.50
2022-11-26T09:47:20.378Z,8.40
2022-11-26T09:48:20.310Z,8.48
2022-11-26T09:49:20.212Z,8.42
2022-11-26T09:50:20.140Z,8.55
2022-11-26T09:51:20.052Z,8.47
2022-11-26T09:52:19.966Z,8.50
2022-11-26T09:53:19.882Z,8.47
2022-11-26T09:54:19.804Z,8.58
2022-11-26T09:55:19.722Z,8.34
2022-11-26T09:56:19.640Z,8.51
2022-11-26T09:57:19.553Z,8.48
2022-11-26T09:58:25.312Z,8.51
2022-11-26T09:59:19.387Z,8.48
2022-11-26T10:00:19.304Z,8.52
2022-11-26T10:01:19.260Z,8.51
2022-11-26T10:02:19.178Z,8.52
2022-11-26T10:03:19.060Z,8.48
2022-11-26T10:04:18.977Z,8.55
2022-11-26T10:05:21.442Z,8.52
2022-11-26T10:06:18.820Z,8.47
2022-11-26T10:07:18.794Z,8.52
2022-11-26T10:08:18.648Z,8.51
2022-11-26T10:09:18.566Z,8.52
2022-11-26T10:10:18.487Z,8.55
2022-11-26T10:11:18.401Z,8.65
2022-11-26T10:12:25.420Z,8.61
2022-11-26T10:13:19.796Z,8.60
2022-11-26T10:14:18.159Z,8.55
2022-11-26T10:15:18.075Z,8.55
2022-11-26T10:16:18.035Z,8.62
2022-11-26T10:17:17.911Z,8.66
2022-11-26T10:18:17.832Z,8.52
2022-11-26T10:19:17.752Z,8.44
2022-11-26T10:20:17.667Z,8.52
2022-11-26T10:21:26.891Z,8.40
2022-11-26T10:22:17.501Z,8.44
2022-11-26T10:23:17.422Z,8.50
2022-11-26T10:24:17.337Z,8.37
2022-11-26T10:25:17.256Z,8.43
2022-11-26T10:26:17.173Z,8.44
2022-11-26T10:27:17.091Z,8.48
2022-11-26T10:28:17.014Z,8.42
2022-11-26T10:29:16.929Z,8.39
2022-11-26T10:30:16.846Z,8.52
2022-11-26T10:31:16.786Z,8.52
2022-11-26T10:32:16.682Z,8.54
2022-11-26T10:33:16.600Z,8.43
2022-11-26T10:34:16.515Z,8.47
2022-11-26T10:35:16.434Z,8.50
2022-11-26T10:36:16.349Z,8.52
2022-11-26T10:37:16.269Z,8.44
2022-11-26T10:38:16.194Z,8.43
2022-11-26T10:39:16.109Z,8.58
2022-11-26T10:40:16.027Z,8.50
2022-11-26T10:41:15.938Z,8.51
2022-11-26T10:42:15.862Z,8.44
2022-11-26T10:43:15.777Z,8.48
2022-11-26T10:44:15.693Z,8.54
2022-11-26T10:45:15.610Z,8.60
2022-11-26T10:46:15.561Z,8.55
2022-11-26T10:47:15.449Z,8.60
2022-11-26T10:48:15.364Z,8.60
2022-11-26T10:49:15.283Z,8.58
2022-11-26T10:50:45.366Z,8.62
2022-11-26T10:51:15.118Z,8.62
2022-11-26T10:52:15.037Z,8.65
2022-11-26T10:53:14.951Z,8.62
2022-11-26T10:54:14.885Z,8.61
2022-11-26T10:55:14.788Z,8.61
2022-11-26T10:56:14.707Z,8.61
2022-11-26T10:57:14.629Z,8.55
2022-11-26T10:58:14.553Z,8.52
2022-11-26T10:59:14.464Z,8.58
2022-11-26T11:00:14.379Z,8.58
2022-11-26T11:01:14.530Z,8.61
2022-11-26T11:02:14.232Z,8.55
2022-11-26T11:03:14.131Z,8.57
2022-11-26T11:04:14.052Z,8.52
2022-11-26T11:05:13.972Z,8.51
2022-11-26T11:06:13.889Z,8.55
2022-11-26T11:07:13.899Z,8.47
2022-11-26T11:08:13.723Z,8.48
2022-11-26T11:09:13.637Z,8.37
2022-11-26T11:10:13.559Z,8.48
2022-11-26T11:11:13.476Z,8.42
2022-11-26T11:12:13.400Z,8.43
2022-11-26T11:13:13.309Z,8.51
2022-11-26T11:14:13.229Z,8.42
2022-11-26T11:15:13.149Z,8.51
2022-11-26T11:16:13.110Z,8.54
2022-11-26T11:17:12.990Z,8.43
2022-11-26T11:18:12.904Z,8.50
2022-11-26T11:19:12.827Z,8.52
2022-11-26T11:20:12.737Z,8.42
2022-11-26T11:21:12.659Z,8.43
2022-11-26T11:22:12.576Z,8.47
2022-11-26T11:23:12.490Z,8.47
2022-11-26T11:24:12.409Z,8.47
2022-11-26T11:25:12.329Z,8.51
2022-11-26T11:26:12.253Z,8.44
2022-11-26T11:27:12.165Z,8.40
2022-11-26T11:28:12.618Z,8.47
2022-11-26T11:29:12.001Z,8.47
2022-11-26T11:30:11.918Z,8.43
2022-11-26T11:31:11.842Z,8.37
2022-11-26T11:32:11.757Z,8.25
2022-11-26T11:33:11.673Z,8.37
2022-11-26T11:34:11.589Z,8.34
2022-11-26T11:35:11.510Z,8.36
2022-11-26T11:36:11.426Z,8.33
2022-11-26T11:37:14.641Z,8.44
2022-11-26T11:38:11.265Z,8.39
2022-11-26T11:39:11.177Z,8.40
2022-11-26T11:40:15.732Z,8.40
2022-11-26T11:41:11.020Z,8.40
2022-11-26T11:42:10.940Z,8.43
2022-11-26T11:43:10.849Z,8.40
2022-11-26T11:44:10.763Z,8.37
2022-11-26T11:45:10.684Z,8.36
2022-11-26T11:46:10.626Z,8.43
2022-11-26T11:47:10.525Z,8.42
2022-11-26T11:48:10.437Z,8.39
2022-11-26T11:49:10.354Z,8.47
2022-11-26T11:50:10.276Z,8.43
2022-11-26T11:51:10.193Z,8.39
2022-11-26T11:52:10.109Z,8.36
2022-11-26T11:53:10.026Z,8.39
2022-11-26T11:54:09.943Z,8.43
2022-11-26T11:55:09.863Z,8.40
2022-11-26T11:56:09.781Z,8.47
2022-11-26T11:57:09.703Z,8.40
2022-11-26T11:58:09.620Z,8.40
2022-11-26T11:59:09.538Z,8.33
2022-11-26T12:00:09.454Z,8.39
2022-11-26T12:01:09.374Z,8.42
2022-11-26T12:02:09.392Z,8.37
2022-11-26T12:03:10.599Z,8.42
2022-11-26T12:04:10.384Z,8.40
2022-11-26T12:05:09.100Z,8.42
2022-11-26T12:06:08.962Z,8.44
2022-11-26T12:07:08.878Z,8.48
2022-11-26T12:08:08.794Z,8.44
2022-11-26T12:09:08.725Z,8.40
2022-11-26T12:10:08.631Z,8.48
2022-11-26T12:11:08.552Z,8.48
2022-11-26T12:12:08.464Z,8.52
2022-11-26T12:13:08.387Z,8.48
2022-11-26T12:14:08.306Z,8.54
2022-11-26T12:15:08.223Z,8.47
2022-11-26T12:16:08.205Z,8.55
2022-11-26T12:17:08.118Z,8.57
2022-11-26T12:18:07.975Z,8.54
2022-11-26T12:19:07.892Z,8.57
2022-11-26T12:20:07.806Z,8.66
2022-11-26T12:21:07.731Z,8.65
2022-11-26T12:22:07.649Z,8.66
2022-11-26T12:23:11.547Z,8.62
2022-11-26T12:24:07.484Z,8.69
2022-11-26T12:25:07.399Z,8.62
2022-11-26T12:26:07.317Z,8.75
2022-11-26T12:27:07.244Z,8.75
2022-11-26T12:28:07.153Z,8.75
2022-11-26T12:29:07.071Z,8.72
2022-11-26T12:30:06.989Z,8.73
2022-11-26T12:31:06.906Z,8.75
2022-11-26T12:32:06.875Z,8.70
2022-11-26T12:33:06.752Z,8.80
2022-11-26T12:34:08.783Z,8.70
2022-11-26T12:35:06.585Z,8.73
2022-11-26T12:36:06.497Z,8.70
2022-11-26T12:37:06.418Z,8.73
2022-11-26T12:38:06.339Z,8.72
2022-11-26T12:39:06.252Z,8.73
2022-11-26T12:40:06.167Z,8.72
2022-11-26T12:41:06.097Z,8.79
2022-11-26T12:42:06.009Z,8.79
2022-11-26T12:43:05.927Z,8.77
2022-11-26T12:44:05.844Z,8.75
2022-11-26T12:45:07.463Z,8.79
2022-11-26T12:46:05.759Z,8.80
2022-11-26T12:47:05.598Z,8.80
2022-11-26T12:48:05.516Z,8.82
2022-11-26T12:49:05.431Z,8.84
2022-11-26T12:50:05.350Z,8.93
2022-11-26T12:51:05.273Z,8.97
2022-11-26T12:52:05.183Z,8.87
2022-11-26T12:53:05.107Z,9.05
2022-11-26T12:54:05.023Z,9.10
2022-11-26T12:55:04.941Z,9.17
2022-11-26T12:56:04.872Z,9.22
2022-11-26T12:57:04.777Z,9.31
2022-11-26T12:58:04.697Z,9.35
2022-11-26T12:59:04.614Z,9.35
2022-11-26T13:00:04.538Z,9.37
2022-11-26T13:01:04.485Z,9.37
2022-11-26T13:02:04.419Z,9.38
2022-11-26T13:03:04.286Z,9.38
2022-11-26T13:04:29.848Z,9.40
2022-11-26T13:05:04.128Z,9.38
2022-11-26T13:06:04.041Z,9.37
2022-11-26T13:07:03.961Z,9.38
2022-11-26T13:08:03.878Z,9.38
2022-11-26T13:09:03.800Z,9.40
2022-11-26T13:10:03.723Z,9.42
2022-11-26T13:11:08.549Z,9.42
2022-11-26T13:12:03.554Z,9.34
2022-11-26T13:13:03.472Z,9.40
2022-11-26T13:14:03.391Z,9.37
2022-11-26T13:15:03.310Z,9.29
2022-11-26T13:16:03.339Z,9.35
2022-11-26T13:17:03.182Z,9.35